Cartersville, Georgia
Current Conditions -  °F | °C
As of 5:13 AM on Tuesday 21 Oct 2014 (Local Time) from KVPC Reporting Station
Scattered Clouds Scattered Clouds  
Wind Chill: 46°   Ceiling: Unl
Heat Index: 46°   Visibility: 8mi
Dew Point: 44°   Wind: 0mph
Humidity: 93%   Direction: NA
Pressure: 30.02"   Gusts: NA
Location:  34.17°N, 84.79°W
Report Text: KVPC 210913Z AUTO 00000KT 8SM SCT002 08/07 A3002 RMK AO2 T00780067
Loading
Personal Weather Stations






























Interactive Weather Map New forecast layout! Learn more

10-Day Weather Forecast

Advertisements
Track Severe Weather on mobile